sensor_id;sensor_type;location;lat;lon;timestamp;pressure;altitude;pressure_sealevel;temperature;humidity
61018;BME280;48171;51.550;5.434;2023-01-27T00:02:22;102483.38;;;4.58;95.08
61018;BME280;48171;51.550;5.434;2023-01-27T00:04:47;102484.28;;;4.58;95.16
61018;BME280;48171;51.550;5.434;2023-01-27T00:07:13;102469.94;;;4.50;95.53
61018;BME280;48171;51.550;5.434;2023-01-27T00:09:38;102460.94;;;4.44;96.30
61018;BME280;48171;51.550;5.434;2023-01-27T00:12:05;102483.25;;;4.55;96.62
61018;BME280;48171;51.550;5.434;2023-01-27T00:14:49;102467.28;;;4.49;96.99
61018;BME280;48171;51.550;5.434;2023-01-27T00:17:14;102474.50;;;4.54;97.65
61018;BME280;48171;51.550;5.434;2023-01-27T00:19:40;102475.41;;;4.55;96.99
61018;BME280;48171;51.550;5.434;2023-01-27T00:22:08;102475.44;;;4.56;97.61
61018;BME280;48171;51.550;5.434;2023-01-27T00:24:52;102477.06;;;4.53;97.32
61018;BME280;48171;51.550;5.434;2023-01-27T00:27:17;102474.38;;;4.51;96.80
61018;BME280;48171;51.550;5.434;2023-01-27T00:29:42;102476.91;;;4.50;96.87
61018;BME280;48171;51.550;5.434;2023-01-27T00:32:08;102457.38;;;4.41;96.82
61018;BME280;48171;51.550;5.434;2023-01-27T00:34:52;102470.44;;;4.41;97.58
61018;BME280;48171;51.550;5.434;2023-01-27T00:37:17;102460.75;;;4.39;97.81
61018;BME280;48171;51.550;5.434;2023-01-27T00:39:43;102479.00;;;4.37;97.48
61018;BME280;48171;51.550;5.434;2023-01-27T00:42:08;102463.16;;;4.34;97.22
61018;BME280;48171;51.550;5.434;2023-01-27T00:44:34;102475.50;;;4.37;96.93
61018;BME280;48171;51.550;5.434;2023-01-27T00:46:59;102473.75;;;4.37;97.45
61018;BME280;48171;51.550;5.434;2023-01-27T00:49:25;102470.94;;;4.33;97.18
61018;BME280;48171;51.550;5.434;2023-01-27T00:51:50;102476.25;;;4.34;97.66
61018;BME280;48171;51.550;5.434;2023-01-27T00:54:16;102480.81;;;4.38;97.43
61018;BME280;48171;51.550;5.434;2023-01-27T00:56:41;102478.03;;;4.35;97.40
61018;BME280;48171;51.550;5.434;2023-01-27T00:59:06;102485.88;;;4.35;97.48
61018;BME280;48171;51.550;5.434;2023-01-27T01:01:32;102483.94;;;4.31;97.18
61018;BME280;48171;51.550;5.434;2023-01-27T01:03:58;102483.84;;;4.28;97.52
61018;BME280;48171;51.550;5.434;2023-01-27T01:06:24;102490.91;;;4.31;97.76
61018;BME280;48171;51.550;5.434;2023-01-27T01:08:49;102496.00;;;4.28;97.80
61018;BME280;48171;51.550;5.434;2023-01-27T01:11:19;102476.34;;;4.18;98.01
61018;BME280;48171;51.550;5.434;2023-01-27T01:13:45;102490.69;;;4.26;97.89
61018;BME280;48171;51.550;5.434;2023-01-27T01:16:13;102487.09;;;4.24;98.32
61018;BME280;48171;51.550;5.434;2023-01-27T01:18:39;102487.88;;;4.21;98.19
61018;BME280;48171;51.550;5.434;2023-01-27T01:21:06;102492.28;;;4.23;98.27
61018;BME280;48171;51.550;5.434;2023-01-27T01:23:32;102495.91;;;4.26;97.53
61018;BME280;48171;51.550;5.434;2023-01-27T01:25:58;102503.09;;;4.30;97.97
61018;BME280;48171;51.550;5.434;2023-01-27T01:28:24;102506.34;;;4.25;98.28
61018;BME280;48171;51.550;5.434;2023-01-27T01:30:50;102513.56;;;4.30;98.05
61018;BME280;48171;51.550;5.434;2023-01-27T01:33:15;102503.72;;;4.25;97.55
61018;BME280;48171;51.550;5.434;2023-01-27T01:35:41;102513.50;;;4.29;97.98
61018;BME280;48171;51.550;5.434;2023-01-27T01:38:06;102508.88;;;4.23;98.06
61018;BME280;48171;51.550;5.434;2023-01-27T01:40:31;102512.63;;;4.28;98.13
61018;BME280;48171;51.550;5.434;2023-01-27T01:43:01;102506.19;;;4.21;98.42
61018;BME280;48171;51.550;5.434;2023-01-27T01:48:14;102511.63;;;4.26;98.97
61018;BME280;48171;51.550;5.434;2023-01-27T01:50:45;102510.66;;;4.24;99.10
61018;BME280;48171;51.550;5.434;2023-01-27T01:53:12;102505.41;;;4.24;98.62
61018;BME280;48171;51.550;5.434;2023-01-27T01:55:39;102517.75;;;4.27;97.87
61018;BME280;48171;51.550;5.434;2023-01-27T01:58:06;102511.56;;;4.25;98.37
61018;BME280;48171;51.550;5.434;2023-01-27T02:00:32;102500.88;;;4.20;98.31
61018;BME280;48171;51.550;5.434;2023-01-27T02:02:58;102504.41;;;4.20;98.21
61018;BME280;48171;51.550;5.434;2023-01-27T02:05:30;102514.19;;;4.25;97.61
61018;BME280;48171;51.550;5.434;2023-01-27T02:08:01;102508.00;;;4.23;97.20
61018;BME280;48171;51.550;5.434;2023-01-27T02:10:27;102491.78;;;4.12;96.85
61018;BME280;48171;51.550;5.434;2023-01-27T02:12:52;102506.34;;;4.25;96.12
61018;BME280;48171;51.550;5.434;2023-01-27T02:15:18;102495.34;;;4.14;96.60
61018;BME280;48171;51.550;5.434;2023-01-27T02:17:46;102498.72;;;4.11;96.69
61018;BME280;48171;51.550;5.434;2023-01-27T02:20:33;102513.91;;;4.18;96.50
61018;BME280;48171;51.550;5.434;2023-01-27T02:26:17;102514.78;;;4.19;96.79
61018;BME280;48171;51.550;5.434;2023-01-27T02:28:44;102518.00;;;4.13;96.09
61018;BME280;48171;51.550;5.434;2023-01-27T02:31:09;102516.97;;;4.10;96.50
61018;BME280;48171;51.550;5.434;2023-01-27T02:33:35;102518.78;;;4.11;96.41
61018;BME280;48171;51.550;5.434;2023-01-27T02:36:09;102512.41;;;4.06;96.61
61018;BME280;48171;51.550;5.434;2023-01-27T02:38:42;102537.16;;;4.12;96.71
61018;BME280;48171;51.550;5.434;2023-01-27T02:41:23;102531.00;;;4.12;96.45
61018;BME280;48171;51.550;5.434;2023-01-27T02:43:51;102523.81;;;4.06;96.70
61018;BME280;48171;51.550;5.434;2023-01-27T02:46:17;102539.69;;;4.11;96.56
61018;BME280;48171;51.550;5.434;2023-01-27T02:48:42;102521.19;;;4.06;96.58
61018;BME280;48171;51.550;5.434;2023-01-27T02:51:08;102536.88;;;4.06;96.91
61018;BME280;48171;51.550;5.434;2023-01-27T02:53:33;102503.03;;;3.91;96.91
61018;BME280;48171;51.550;5.434;2023-01-27T02:55:59;102531.56;;;4.05;97.27
61018;BME280;48171;51.550;5.434;2023-01-27T02:58:24;102527.09;;;4.02;97.18
61018;BME280;48171;51.550;5.434;2023-01-27T03:00:49;102524.47;;;4.02;97.57
61018;BME280;48171;51.550;5.434;2023-01-27T03:03:15;102527.91;;;4.01;97.24
61018;BME280;48171;51.550;5.434;2023-01-27T03:05:40;102534.03;;;4.01;97.22
61018;BME280;48171;51.550;5.434;2023-01-27T03:08:05;102528.59;;;3.97;97.45
61018;BME280;48171;51.550;5.434;2023-01-27T03:10:31;102532.94;;;3.96;97.05
61018;BME280;48171;51.550;5.434;2023-01-27T03:12:56;102532.03;;;3.96;97.54
61018;BME280;48171;51.550;5.434;2023-01-27T03:15:21;102534.78;;;3.99;97.42
61018;BME280;48171;51.550;5.434;2023-01-27T03:18:06;102522.09;;;3.89;97.50
61018;BME280;48171;51.550;5.434;2023-01-27T03:20:41;102531.13;;;3.95;97.49
61018;BME280;48171;51.550;5.434;2023-01-27T03:23:07;102537.09;;;3.93;97.40
61018;BME280;48171;51.550;5.434;2023-01-27T03:25:33;102523.81;;;3.88;97.12
61018;BME280;48171;51.550;5.434;2023-01-27T03:27:58;102517.56;;;3.85;97.28
61018;BME280;48171;51.550;5.434;2023-01-27T03:30:25;102543.16;;;3.92;97.19
61018;BME280;48171;51.550;5.434;2023-01-27T03:32:51;102528.00;;;3.85;97.43
61018;BME280;48171;51.550;5.434;2023-01-27T03:35:16;102540.41;;;3.89;97.62
61018;BME280;48171;51.550;5.434;2023-01-27T03:37:42;102544.78;;;3.90;97.84
61018;BME280;48171;51.550;5.434;2023-01-27T03:40:27;102551.91;;;3.92;98.25
61018;BME280;48171;51.550;5.434;2023-01-27T03:43:11;102537.88;;;3.90;97.88
61018;BME280;48171;51.550;5.434;2023-01-27T03:45:55;102561.53;;;3.93;98.25
61018;BME280;48171;51.550;5.434;2023-01-27T03:48:39;102550.78;;;3.87;98.62
61018;BME280;48171;51.550;5.434;2023-01-27T03:51:06;102559.75;;;3.92;98.43
61018;BME280;48171;51.550;5.434;2023-01-27T03:53:34;102563.09;;;3.90;98.57
61018;BME280;48171;51.550;5.434;2023-01-27T03:55:59;102546.97;;;3.80;98.89
61018;BME280;48171;51.550;5.434;2023-01-27T03:58:27;102567.59;;;3.92;98.97
61018;BME280;48171;51.550;5.434;2023-01-27T04:00:55;102550.56;;;3.83;99.12
61018;BME280;48171;51.550;5.434;2023-01-27T04:03:22;102564.81;;;3.89;99.42
61018;BME280;48171;51.550;5.434;2023-01-27T04:06:14;102569.16;;;3.89;99.69
61018;BME280;48171;51.550;5.434;2023-01-27T04:08:59;102554.97;;;3.84;100.00
61018;BME280;48171;51.550;5.434;2023-01-27T04:11:25;102568.28;;;3.88;100.00
61018;BME280;48171;51.550;5.434;2023-01-27T04:14:12;102563.09;;;3.90;99.80
61018;BME280;48171;51.550;5.434;2023-01-27T04:16:38;102561.84;;;3.81;100.00
61018;BME280;48171;51.550;5.434;2023-01-27T04:19:05;102554.16;;;3.85;100.00
61018;BME280;48171;51.550;5.434;2023-01-27T04:21:32;102552.22;;;3.80;100.00
61018;BME280;48171;51.550;5.434;2023-01-27T04:23:58;102542.44;;;3.76;100.00
61018;BME280;48171;51.550;5.434;2023-01-27T04:26:23;102557.56;;;3.84;100.00
61018;BME280;48171;51.550;5.434;2023-01-27T04:28:49;102561.91;;;3.83;100.00
61018;BME280;48171;51.550;5.434;2023-01-27T04:31:15;102564.69;;;3.86;100.00
61018;BME280;48171;51.550;5.434;2023-01-27T04:33:41;102560.84;;;3.79;100.00
61018;BME280;48171;51.550;5.434;2023-01-27T04:36:07;102559.00;;;3.77;100.00
61018;BME280;48171;51.550;5.434;2023-01-27T04:38:33;102574.22;;;3.86;100.00
61018;BME280;48171;51.550;5.434;2023-01-27T04:40:58;102574.19;;;3.84;100.00
61018;BME280;48171;51.550;5.434;2023-01-27T04:43:24;102579.47;;;3.86;100.00
61018;BME280;48171;51.550;5.434;2023-01-27T04:45:49;102561.53;;;3.75;100.00
61018;BME280;48171;51.550;5.434;2023-01-27T04:48:14;102562.50;;;3.77;100.00
61018;BME280;48171;51.550;5.434;2023-01-27T04:50:39;102583.59;;;3.80;100.00
61018;BME280;48171;51.550;5.434;2023-01-27T04:53:05;102582.06;;;3.86;100.00
61018;BME280;48171;51.550;5.434;2023-01-27T04:55:30;102568.56;;;3.76;99.58
61018;BME280;48171;51.550;5.434;2023-01-27T04:57:55;102582.06;;;3.86;99.27
61018;BME280;48171;51.550;5.434;2023-01-27T05:00:21;102586.50;;;3.87;99.27
61018;BME280;48171;51.550;5.434;2023-01-27T05:02:46;102584.69;;;3.86;99.02
61018;BME280;48171;51.550;5.434;2023-01-27T05:05:11;102584.56;;;3.83;98.80
61018;BME280;48171;51.550;5.434;2023-01-27T05:07:37;102586.28;;;3.82;98.42
61018;BME280;48171;51.550;5.434;2023-01-27T05:10:03;102578.16;;;3.76;98.61
61018;BME280;48171;51.550;5.434;2023-01-27T05:12:28;102599.41;;;3.84;98.84
61018;BME280;48171;51.550;5.434;2023-01-27T05:14:53;102598.59;;;3.85;98.82
61018;BME280;48171;51.550;5.434;2023-01-27T05:17:19;102587.84;;;3.78;98.59
61018;BME280;48171;51.550;5.434;2023-01-27T05:19:44;102586.72;;;3.73;98.80
61018;BME280;48171;51.550;5.434;2023-01-27T05:22:10;102602.84;;;3.83;98.52
61018;BME280;48171;51.550;5.434;2023-01-27T05:24:36;102604.50;;;3.80;98.69
61018;BME280;48171;51.550;5.434;2023-01-27T05:27:02;102607.91;;;3.79;98.74
61018;BME280;48171;51.550;5.434;2023-01-27T05:29:28;102604.19;;;3.74;98.43
61018;BME280;48171;51.550;5.434;2023-01-27T05:31:53;102599.06;;;3.76;98.12
61018;BME280;48171;51.550;5.434;2023-01-27T05:34:18;102604.13;;;3.73;97.39
61018;BME280;48171;51.550;5.434;2023-01-27T05:36:43;102619.22;;;3.78;97.48
61018;BME280;48171;51.550;5.434;2023-01-27T05:39:10;102612.13;;;3.76;96.95
61018;BME280;48171;51.550;5.434;2023-01-27T05:41:35;102615.53;;;3.75;97.12
61018;BME280;48171;51.550;5.434;2023-01-27T05:44:01;102611.16;;;3.74;97.10
61018;BME280;48171;51.550;5.434;2023-01-27T05:46:28;102622.63;;;3.77;97.51
61018;BME280;48171;51.550;5.434;2023-01-27T05:48:56;102614.78;;;3.77;97.18
61018;BME280;48171;51.550;5.434;2023-01-27T05:51:24;102621.91;;;3.80;97.87
61018;BME280;48171;51.550;5.434;2023-01-27T05:53:49;102630.78;;;3.84;96.88
61018;BME280;48171;51.550;5.434;2023-01-27T05:56:17;102621.06;;;3.81;96.84
61018;BME280;48171;51.550;5.434;2023-01-27T05:58:43;102624.56;;;3.81;96.64
61018;BME280;48171;51.550;5.434;2023-01-27T06:01:10;102628.16;;;3.84;97.02
61018;BME280;48171;51.550;5.434;2023-01-27T06:03:37;102639.47;;;3.83;97.28
61018;BME280;48171;51.550;5.434;2023-01-27T06:06:03;102635.97;;;3.82;96.65
61018;BME280;48171;51.550;5.434;2023-01-27T06:08:29;102639.53;;;3.84;96.81
61018;BME280;48171;51.550;5.434;2023-01-27T06:10:54;102620.78;;;3.75;97.04
61018;BME280;48171;51.550;5.434;2023-01-27T06:13:21;102630.47;;;3.77;96.80
61018;BME280;48171;51.550;5.434;2023-01-27T06:15:47;102621.66;;;3.75;97.09
61018;BME280;48171;51.550;5.434;2023-01-27T06:18:14;102635.13;;;3.83;97.24
61018;BME280;48171;51.550;5.434;2023-01-27T06:20:40;102638.63;;;3.84;97.11
61018;BME280;48171;51.550;5.434;2023-01-27T06:23:07;102640.44;;;3.85;97.38
61018;BME280;48171;51.550;5.434;2023-01-27T06:25:39;102640.13;;;3.78;96.78
61018;BME280;48171;51.550;5.434;2023-01-27T06:28:06;102643.72;;;3.80;96.76
61018;BME280;48171;51.550;5.434;2023-01-27T06:30:36;102653.59;;;3.86;96.60
61018;BME280;48171;51.550;5.434;2023-01-27T06:33:02;102631.44;;;3.79;96.67
61018;BME280;48171;51.550;5.434;2023-01-27T06:35:28;102645.56;;;3.83;96.88
61018;BME280;48171;51.550;5.434;2023-01-27T06:37:56;102640.34;;;3.83;96.44
61018;BME280;48171;51.550;5.434;2023-01-27T06:40:23;102657.22;;;3.90;96.54
61018;BME280;48171;51.550;5.434;2023-01-27T06:42:48;102638.63;;;3.84;97.01
61018;BME280;48171;51.550;5.434;2023-01-27T06:45:14;102645.75;;;3.86;96.95
61018;BME280;48171;51.550;5.434;2023-01-27T06:47:39;102633.03;;;3.76;96.70
61018;BME280;48171;51.550;5.434;2023-01-27T06:50:06;102640.53;;;3.86;96.47
61018;BME280;48171;51.550;5.434;2023-01-27T06:52:32;102643.84;;;3.84;96.80
61018;BME280;48171;51.550;5.434;2023-01-27T06:54:57;102640.53;;;3.86;96.16
61018;BME280;48171;51.550;5.434;2023-01-27T06:57:25;102647.31;;;3.83;96.49
61018;BME280;48171;51.550;5.434;2023-01-27T06:59:50;102640.25;;;3.81;96.08
61018;BME280;48171;51.550;5.434;2023-01-27T07:02:16;102660.69;;;3.89;96.14
61018;BME280;48171;51.550;5.434;2023-01-27T07:04:41;102661.44;;;3.86;96.38
61018;BME280;48171;51.550;5.434;2023-01-27T07:07:06;102646.25;;;3.79;96.54
61018;BME280;48171;51.550;5.434;2023-01-27T07:09:32;102642.66;;;3.77;96.40
61018;BME280;48171;51.550;5.434;2023-01-27T07:11:57;102654.09;;;3.79;96.35
61018;BME280;48171;51.550;5.434;2023-01-27T07:14:22;102657.59;;;3.79;96.24
61018;BME280;48171;51.550;5.434;2023-01-27T07:16:48;102650.50;;;3.77;96.23
61018;BME280;48171;51.550;5.434;2023-01-27T07:19:13;102646.91;;;3.75;96.46
61018;BME280;48171;51.550;5.434;2023-01-27T07:21:39;102656.88;;;3.82;96.01
61018;BME280;48171;51.550;5.434;2023-01-27T07:24:04;102656.63;;;3.77;96.00
61018;BME280;48171;51.550;5.434;2023-01-27T07:26:29;102672.69;;;3.85;95.99
61018;BME280;48171;51.550;5.434;2023-01-27T07:28:55;102651.34;;;3.76;95.90
61018;BME280;48171;51.550;5.434;2023-01-27T07:31:21;102653.03;;;3.75;95.54
61018;BME280;48171;51.550;5.434;2023-01-27T07:33:46;102670.91;;;3.84;95.92
61018;BME280;48171;51.550;5.434;2023-01-27T07:36:11;102670.97;;;3.86;96.00
61018;BME280;48171;51.550;5.434;2023-01-27T07:38:37;102676.38;;;3.89;95.72
61018;BME280;48171;51.550;5.434;2023-01-27T07:41:04;102679.66;;;3.85;95.49
61018;BME280;48171;51.550;5.434;2023-01-27T07:43:30;102673.59;;;3.86;95.42
61018;BME280;48171;51.550;5.434;2023-01-27T07:45:55;102668.00;;;3.78;95.22
61018;BME280;48171;51.550;5.434;2023-01-27T07:48:21;102678.91;;;3.87;95.59
61018;BME280;48171;51.550;5.434;2023-01-27T07:50:47;102686.91;;;3.90;95.24
61018;BME280;48171;51.550;5.434;2023-01-27T07:53:12;102675.19;;;3.82;95.64
61018;BME280;48171;51.550;5.434;2023-01-27T07:55:37;102677.03;;;3.85;95.20
61018;BME280;48171;51.550;5.434;2023-01-27T07:58:03;102675.00;;;3.79;95.21
61018;BME280;48171;51.550;5.434;2023-01-27T08:00:28;102686.84;;;3.89;95.20
61018;BME280;48171;51.550;5.434;2023-01-27T08:02:55;102695.66;;;3.91;95.88
61018;BME280;48171;51.550;5.434;2023-01-27T08:05:21;102684.00;;;3.84;95.54
61018;BME280;48171;51.550;5.434;2023-01-27T08:07:47;102680.41;;;3.82;95.44
61018;BME280;48171;51.550;5.434;2023-01-27T08:10:13;102687.63;;;3.88;95.81
61018;BME280;48171;51.550;5.434;2023-01-27T08:12:38;102694.66;;;3.89;95.80
61018;BME280;48171;51.550;5.434;2023-01-27T08:15:04;102687.72;;;3.89;95.62
61018;BME280;48171;51.550;5.434;2023-01-27T08:17:30;102702.66;;;3.92;95.53
61018;BME280;48171;51.550;5.434;2023-01-27T08:19:55;102689.34;;;3.87;96.20
61018;BME280;48171;51.550;5.434;2023-01-27T08:22:20;102694.75;;;3.90;95.28
61018;BME280;48171;51.550;5.434;2023-01-27T08:24:47;102684.88;;;3.85;95.72
61018;BME280;48171;51.550;5.434;2023-01-27T08:27:12;102703.81;;;3.97;95.57
61018;BME280;48171;51.550;5.434;2023-01-27T08:29:37;102701.19;;;3.97;95.61
61018;BME280;48171;51.550;5.434;2023-01-27T08:32:03;102707.38;;;3.99;95.94
61018;BME280;48171;51.550;5.434;2023-01-27T08:34:28;102702.16;;;3.99;95.82
61018;BME280;48171;51.550;5.434;2023-01-27T08:36:53;102694.97;;;3.95;95.84
61018;BME280;48171;51.550;5.434;2023-01-27T08:39:19;102699.63;;;4.00;95.40
61018;BME280;48171;51.550;5.434;2023-01-27T08:41:44;102705.59;;;3.98;95.68
61018;BME280;48171;51.550;5.434;2023-01-27T08:44:09;102713.81;;;4.06;96.41
61018;BME280;48171;51.550;5.434;2023-01-27T08:46:35;102721.75;;;4.07;95.39
61018;BME280;48171;51.550;5.434;2023-01-27T08:49:00;102721.66;;;4.06;95.79
61018;BME280;48171;51.550;5.434;2023-01-27T08:51:26;102718.06;;;4.04;95.46
61018;BME280;48171;51.550;5.434;2023-01-27T08:53:54;102714.78;;;4.08;96.22
61018;BME280;48171;51.550;5.434;2023-01-27T08:56:19;102723.78;;;4.13;95.98
61018;BME280;48171;51.550;5.434;2023-01-27T08:58:45;102717.25;;;4.05;96.26
61018;BME280;48171;51.550;5.434;2023-01-27T09:01:12;102726.84;;;4.04;96.03
61018;BME280;48171;51.550;5.434;2023-01-27T09:03:38;102730.47;;;4.08;95.60
61018;BME280;48171;51.550;5.434;2023-01-27T09:06:03;102754.28;;;4.12;95.46
61018;BME280;48171;51.550;5.434;2023-01-27T09:08:29;102748.78;;;4.08;95.72
61018;BME280;48171;51.550;5.434;2023-01-27T09:10:55;102748.97;;;4.11;95.48
61018;BME280;48171;51.550;5.434;2023-01-27T09:13:21;102742.66;;;4.07;95.22
61018;BME280;48171;51.550;5.434;2023-01-27T09:15:49;102729.44;;;4.04;95.21
61018;BME280;48171;51.550;5.434;2023-01-27T09:18:14;102750.72;;;4.12;95.63
61018;BME280;48171;51.550;5.434;2023-01-27T09:20:40;102726.16;;;4.08;95.56
61018;BME280;48171;51.550;5.434;2023-01-27T09:23:05;102715.44;;;4.04;95.99
61018;BME280;48171;51.550;5.434;2023-01-27T09:25:30;102745.31;;;4.25;94.76
61018;BME280;48171;51.550;5.434;2023-01-27T09:27:57;102744.34;;;4.23;94.63
61018;BME280;48171;51.550;5.434;2023-01-27T09:30:24;102746.44;;;4.30;94.17
61018;BME280;48171;51.550;5.434;2023-01-27T09:32:51;102748.97;;;4.29;94.36
61018;BME280;48171;51.550;5.434;2023-01-27T09:35:17;102745.31;;;4.25;93.75
61018;BME280;48171;51.550;5.434;2023-01-27T09:37:50;102757.22;;;4.36;93.45
61018;BME280;48171;51.550;5.434;2023-01-27T09:40:31;102758.19;;;4.38;93.63
61018;BME280;48171;51.550;5.434;2023-01-27T09:46:07;102752.88;;;4.37;93.85
61018;BME280;48171;51.550;5.434;2023-01-27T09:54:59;102767.00;;;4.40;92.51
61018;BME280;48171;51.550;5.434;2023-01-27T09:57:40;102776.50;;;4.38;92.72
61018;BME280;48171;51.550;5.434;2023-01-27T10:03:25;102768.50;;;4.35;92.25
61018;BME280;48171;51.550;5.434;2023-01-27T10:08:41;102764.97;;;4.35;92.44
61018;BME280;48171;51.550;5.434;2023-01-27T10:11:28;102775.59;;;4.38;91.77
61018;BME280;48171;51.550;5.434;2023-01-27T10:17:09;102777.78;;;4.47;91.76
61018;BME280;48171;51.550;5.434;2023-01-27T10:25:24;102767.31;;;4.47;91.76
61018;BME280;48171;51.550;5.434;2023-01-27T10:27:59;102769.19;;;4.49;91.03
61018;BME280;48171;51.550;5.434;2023-01-27T10:30:33;102772.00;;;4.54;91.49
61018;BME280;48171;51.550;5.434;2023-01-27T10:33:18;102762.50;;;4.56;91.88
61018;BME280;48171;51.550;5.434;2023-01-27T10:44:23;102765.78;;;4.70;91.26
61018;BME280;48171;51.550;5.434;2023-01-27T10:49:36;102756.22;;;4.70;90.71
61018;BME280;48171;51.550;5.434;2023-01-27T10:52:12;102754.34;;;4.68;90.77
61018;BME280;48171;51.550;5.434;2023-01-27T11:00:04;102752.78;;;4.71;90.40
61018;BME280;48171;51.550;5.434;2023-01-27T11:02:41;102756.50;;;4.76;90.72
61018;BME280;48171;51.550;5.434;2023-01-27T11:05:16;102758.41;;;4.79;90.26
61018;BME280;48171;51.550;5.434;2023-01-27T11:07:51;102745.81;;;4.72;89.56
61018;BME280;48171;51.550;5.434;2023-01-27T11:10:19;102756.22;;;4.70;89.43
61018;BME280;48171;51.550;5.434;2023-01-27T11:12:53;102757.19;;;4.72;89.98
61018;BME280;48171;51.550;5.434;2023-01-27T11:15:26;102756.38;;;4.73;89.71
61018;BME280;48171;51.550;5.434;2023-01-27T11:18:07;102749.72;;;4.62;89.70
61018;BME280;48171;51.550;5.434;2023-01-27T11:20:41;102742.63;;;4.59;90.05
61018;BME280;48171;51.550;5.434;2023-01-27T11:23:29;102748.81;;;4.61;90.04
61018;BME280;48171;51.550;5.434;2023-01-27T11:26:26;102745.44;;;4.64;90.16
61018;BME280;48171;51.550;5.434;2023-01-27T11:29:17;102755.03;;;4.64;90.55
61018;BME280;48171;51.550;5.434;2023-01-27T11:31:55;102748.81;;;4.61;90.83
61018;BME280;48171;51.550;5.434;2023-01-27T11:34:38;102754.72;;;4.75;91.46
61018;BME280;48171;51.550;5.434;2023-01-27T11:37:21;102747.69;;;4.74;90.55
61018;BME280;48171;51.550;5.434;2023-01-27T11:39:49;102749.41;;;4.74;90.59
61018;BME280;48171;51.550;5.434;2023-01-27T11:42:14;102735.22;;;4.69;91.15
61018;BME280;48171;51.550;5.434;2023-01-27T11:44:41;102741.75;;;4.78;91.06
61018;BME280;48171;51.550;5.434;2023-01-27T11:47:17;102740.47;;;4.88;90.86
61018;BME280;48171;51.550;5.434;2023-01-27T11:49:48;102727.94;;;4.81;90.03
61018;BME280;48171;51.550;5.434;2023-01-27T11:52:17;102737.06;;;4.89;90.42
61018;BME280;48171;51.550;5.434;2023-01-27T11:57:30;102734.28;;;4.86;90.53
61018;BME280;48171;51.550;5.434;2023-01-27T12:05:56;102729.47;;;4.95;90.69
61018;BME280;48171;51.550;5.434;2023-01-27T12:08:44;102731.34;;;4.98;90.11
61018;BME280;48171;51.550;5.434;2023-01-27T12:11:28;102727.63;;;4.93;90.19
61018;BME280;48171;51.550;5.434;2023-01-27T12:13:58;102743.66;;;5.00;88.65
61018;BME280;48171;51.550;5.434;2023-01-27T12:16:45;102725.72;;;4.90;89.01
61018;BME280;48171;51.550;5.434;2023-01-27T12:19:27;102742.50;;;4.94;88.65
61018;BME280;48171;51.550;5.434;2023-01-27T12:21:58;102723.13;;;4.90;88.54
61018;BME280;48171;51.550;5.434;2023-01-27T12:24:34;102721.38;;;4.91;89.02
61018;BME280;48171;51.550;5.434;2023-01-27T12:27:02;102705.88;;;4.76;88.75
61018;BME280;48171;51.550;5.434;2023-01-27T12:29:47;102714.28;;;4.88;89.26
61018;BME280;48171;51.550;5.434;2023-01-27T12:32:42;102724.38;;;4.98;89.74
61018;BME280;48171;51.550;5.434;2023-01-27T12:35:33;102730.38;;;4.96;89.43
61018;BME280;48171;51.550;5.434;2023-01-27T12:38:22;102725.22;;;4.97;89.26
61018;BME280;48171;51.550;5.434;2023-01-27T12:40:57;102712.63;;;4.90;89.21
61018;BME280;48171;51.550;5.434;2023-01-27T12:43:23;102705.53;;;4.88;88.12
61018;BME280;48171;51.550;5.434;2023-01-27T12:46:17;102709.06;;;4.88;89.04
61018;BME280;48171;51.550;5.434;2023-01-27T12:48:47;102711.25;;;4.98;89.60
61018;BME280;48171;51.550;5.434;2023-01-27T12:51:19;102714.56;;;4.94;89.39
61018;BME280;48171;51.550;5.434;2023-01-27T12:53:49;102707.91;;;5.01;89.40
61018;BME280;48171;51.550;5.434;2023-01-27T12:56:22;102699.22;;;5.02;88.32
61018;BME280;48171;51.550;5.434;2023-01-27T13:01:20;102705.78;;;5.12;88.03
61018;BME280;48171;51.550;5.434;2023-01-27T13:03:53;102683.69;;;5.07;87.91
61018;BME280;48171;51.550;5.434;2023-01-27T13:06:34;102706.06;;;5.18;87.84
61018;BME280;48171;51.550;5.434;2023-01-27T13:09:30;102703.56;;;5.21;87.77
61018;BME280;48171;51.550;5.434;2023-01-27T13:12:01;102692.75;;;5.13;88.03
61018;BME280;48171;51.550;5.434;2023-01-27T13:14:33;102706.13;;;5.19;88.05
61018;BME280;48171;51.550;5.434;2023-01-27T13:16:59;102714.78;;;5.18;87.46
61018;BME280;48171;51.550;5.434;2023-01-27T13:19:37;102712.88;;;5.14;88.06
61018;BME280;48171;51.550;5.434;2023-01-27T13:22:04;102695.91;;;5.06;87.05
61018;BME280;48171;51.550;5.434;2023-01-27T13:24:36;102700.09;;;5.03;87.55
61018;BME280;48171;51.550;5.434;2023-01-27T13:27:42;102675.06;;;4.90;88.00
61018;BME280;48171;51.550;5.434;2023-01-27T13:30:28;102695.50;;;4.97;87.14
61018;BME280;48171;51.550;5.434;2023-01-27T13:33:12;102692.94;;;4.98;87.88
61018;BME280;48171;51.550;5.434;2023-01-27T13:36:07;102705.63;;;5.09;87.87
61018;BME280;48171;51.550;5.434;2023-01-27T13:41:55;102680.78;;;5.00;88.14
61018;BME280;48171;51.550;5.434;2023-01-27T13:44:32;102682.69;;;5.03;87.90
61018;BME280;48171;51.550;5.434;2023-01-27T13:47:11;102661.81;;;4.87;88.00
61018;BME280;48171;51.550;5.434;2023-01-27T13:52:39;102709.72;;;5.21;87.91
61018;BME280;48171;51.550;5.434;2023-01-27T14:15:44;102699.00;;;4.97;87.74
61018;BME280;48171;51.550;5.434;2023-01-27T14:18:28;102708.13;;;5.06;88.92
61018;BME280;48171;51.550;5.434;2023-01-27T14:24:28;102678.38;;;4.86;88.29
61018;BME280;48171;51.550;5.434;2023-01-27T14:27:16;102722.31;;;5.11;87.10
61018;BME280;48171;51.550;5.434;2023-01-27T14:45:17;102741.41;;;5.08;87.66
61018;BME280;48171;51.550;5.434;2023-01-27T14:54:15;102730.38;;;4.96;88.50
61018;BME280;48171;51.550;5.434;2023-01-27T15:05:09;102747.72;;;4.94;88.91
61018;BME280;48171;51.550;5.434;2023-01-27T15:07:56;102743.97;;;4.89;88.85
61018;BME280;48171;51.550;5.434;2023-01-27T15:10:30;102747.56;;;4.91;89.07
61018;BME280;48171;51.550;5.434;2023-01-27T15:16:19;102764.22;;;4.91;89.24